createdAt,value
2019-04-10T00:01:42.903Z,25.13
2019-04-10T00:06:46.298Z,29.80
2019-04-10T00:11:49.708Z,20.60
2019-04-10T00:16:54.248Z,17.70
2019-04-10T00:21:57.837Z,24.90
2019-04-10T00:27:02.085Z,23.00
2019-04-10T00:32:05.748Z,24.27
2019-04-10T00:37:21.262Z,28.70
2019-04-10T00:42:14.276Z,20.10
2019-04-10T00:47:17.681Z,20.07
2019-04-10T00:52:21.837Z,23.57
2019-04-10T00:57:25.495Z,21.17
2019-04-10T01:02:29.041Z,26.50
2019-04-10T01:07:37.991Z,31.33
2019-04-10T01:12:38.360Z,19.60
2019-04-10T01:17:42.417Z,23.43
2019-04-10T01:22:45.843Z,24.70
2019-04-10T01:27:50.048Z,23.63
2019-04-10T01:32:54.399Z,17.70
2019-04-10T01:38:01.007Z,30.47
2019-04-10T01:43:10.946Z,22.00
2019-04-10T01:48:08.076Z,27.93
2019-04-10T01:53:11.467Z,23.40
2019-04-10T01:58:16.991Z,24.07
2019-04-10T02:03:20.459Z,15.70
2019-04-10T02:08:23.843Z,24.97
2019-04-10T02:13:27.625Z,26.87
2019-04-10T02:18:31.076Z,27.93
2019-04-10T02:23:34.459Z,26.17
2019-04-10T02:28:37.889Z,25.30
2019-04-10T02:33:41.344Z,19.00
2019-04-10T02:38:59.469Z,22.93
2019-04-10T02:43:51.265Z,41.13
2019-04-10T02:48:55.967Z,31.63
2019-04-10T02:54:00.416Z,29.73
2019-04-10T02:59:04.967Z,26.30
2019-04-10T03:04:09.730Z,22.20
2019-04-10T03:09:30.458Z,25.10
2019-04-10T03:14:19.031Z,35.33
2019-04-10T03:19:23.036Z,20.93
2019-04-10T03:24:27.389Z,32.67
2019-04-10T03:29:31.652Z,35.33
2019-04-10T03:34:39.989Z,22.30
2019-04-10T03:39:40.548Z,25.20
2019-04-10T03:44:45.082Z,26.83
2019-04-10T03:49:48.575Z,22.37
2019-04-10T03:54:52.365Z,33.37
2019-04-10T03:59:56.000Z,34.17
2019-04-10T04:04:59.412Z,24.97
2019-04-10T04:10:02.964Z,28.93
2019-04-10T04:15:07.388Z,26.23
2019-04-10T04:20:10.907Z,29.50
2019-04-10T04:25:14.857Z,34.17
2019-04-10T04:30:18.418Z,28.17
2019-04-10T04:35:22.229Z,27.20
2019-04-10T04:40:25.943Z,30.43
2019-04-10T04:45:30.016Z,28.77
2019-04-10T04:55:40.476Z,31.83
2019-04-10T05:00:43.895Z,24.27
2019-04-10T05:05:47.783Z,29.27
2019-04-10T05:10:51.228Z,27.97
2019-04-10T05:15:55.470Z,32.20
2019-04-10T05:20:58.899Z,32.10
2019-04-10T05:26:02.511Z,29.17
2019-04-10T05:31:06.776Z,29.50
2019-04-10T05:36:10.341Z,24.70
2019-04-10T05:41:13.732Z,32.97
2019-04-10T05:46:17.123Z,40.87
2019-04-10T05:51:21.261Z,36.80
2019-04-10T05:56:25.805Z,29.37
2019-04-10T06:01:34.876Z,35.10
2019-04-10T06:06:34.608Z,26.63
2019-04-10T06:11:39.320Z,26.93
2019-04-10T06:16:42.900Z,30.63
2019-04-10T06:21:46.332Z,33.17
2019-04-10T06:26:50.080Z,25.80
2019-04-10T06:31:54.762Z,43.97
2019-04-10T06:36:58.188Z,36.37
2019-04-10T06:42:02.506Z,40.17
2019-04-10T06:47:06.412Z,29.60
2019-04-10T06:52:10.089Z,39.97
2019-04-10T06:57:14.567Z,38.63
2019-04-10T07:02:25.592Z,39.60
2019-04-10T07:07:25.463Z,39.37
2019-04-10T07:12:32.102Z,35.00
2019-04-10T07:17:37.511Z,39.87
2019-04-10T07:22:44.621Z,43.20
2019-04-10T07:27:44.032Z,38.50
2019-04-10T07:32:49.118Z,29.40
2019-04-10T07:37:54.343Z,35.90
2019-04-10T07:42:58.729Z,38.17
2019-04-10T07:48:02.529Z,42.80
2019-04-10T07:53:06.177Z,41.43
2019-04-10T07:58:09.641Z,27.93
2019-04-10T08:03:13.035Z,38.80
2019-04-10T08:08:17.124Z,42.53
2019-04-10T08:13:20.600Z,29.90
2019-04-10T08:18:25.334Z,39.67
2019-04-10T08:23:28.855Z,34.53
2019-04-10T08:28:32.800Z,34.07
2019-04-10T08:33:36.699Z,30.87
2019-04-10T08:38:40.197Z,36.10
2019-04-10T08:43:43.563Z,33.80
2019-04-10T08:48:47.650Z,39.43
2019-04-10T08:53:53.651Z,35.40
2019-04-10T08:58:57.236Z,41.00
2019-04-10T09:04:01.493Z,36.17
2019-04-10T09:09:07.641Z,43.33
2019-04-10T09:14:11.084Z,32.33
2019-04-10T09:19:14.472Z,40.47
2019-04-10T09:24:17.864Z,39.23
2019-04-10T09:29:23.217Z,37.93
2019-04-10T09:34:27.563Z,41.10
2019-04-10T09:39:31.764Z,38.73
2019-04-10T09:44:35.902Z,32.43
2019-04-10T09:49:43.680Z,37.47
2019-04-10T09:54:44.588Z,36.93
2019-04-10T09:59:48.957Z,37.97
2019-04-10T10:04:53.494Z,40.93
2019-04-10T10:09:59.687Z,39.97
2019-04-10T10:15:02.530Z,38.90
2019-04-10T10:20:07.916Z,41.77
2019-04-10T10:25:11.489Z,34.03
2019-04-10T10:30:15.529Z,36.37
2019-04-10T10:35:19.131Z,31.63
2019-04-10T10:40:23.408Z,32.93
2019-04-10T10:45:27.026Z,36.10
2019-04-10T10:50:31.111Z,35.97
2019-04-10T10:55:34.520Z,37.77
2019-04-10T11:00:38.936Z,35.80
2019-04-10T11:05:42.624Z,41.10
2019-04-10T11:10:50.429Z,33.63
2019-04-10T11:15:52.405Z,35.13
2019-04-10T11:21:00.953Z,36.20
2019-04-10T11:26:02.174Z,34.33
2019-04-10T11:31:06.966Z,37.23
2019-04-10T11:36:12.378Z,33.70
2019-04-10T11:41:18.917Z,36.10
2019-04-10T11:46:22.508Z,36.17
2019-04-10T11:51:30.082Z,39.60
2019-04-10T11:56:31.081Z,36.07
2019-04-10T12:01:36.366Z,45.37
2019-04-10T12:06:40.390Z,36.23
2019-04-10T12:11:44.713Z,43.67
2019-04-10T12:16:48.122Z,37.73
2019-04-10T12:21:51.507Z,39.70
2019-04-10T12:26:54.892Z,46.30
2019-04-10T12:31:58.572Z,32.97
2019-04-10T12:37:02.869Z,38.57
2019-04-10T12:42:06.344Z,40.17
2019-04-10T12:47:09.994Z,36.57
2019-04-10T12:52:14.302Z,46.27
2019-04-10T12:57:18.920Z,29.83
2019-04-10T13:02:22.851Z,39.60
2019-04-10T13:07:26.250Z,37.67
2019-04-10T13:12:29.635Z,41.00
2019-04-10T13:17:33.211Z,35.83
2019-04-10T13:22:36.588Z,43.73
2019-04-10T13:27:41.037Z,39.27
2019-04-10T13:32:44.555Z,39.33
2019-04-10T13:37:47.939Z,38.93
2019-04-10T13:42:51.582Z,38.33
2019-04-10T13:47:55.013Z,40.57
2019-04-10T13:52:59.561Z,31.07
2019-04-10T13:58:03.373Z,41.10
2019-04-10T14:03:06.916Z,40.07
2019-04-10T14:08:10.503Z,41.93
2019-04-10T14:13:13.959Z,41.47
2019-04-10T14:18:18.344Z,40.97
2019-04-10T14:23:29.319Z,36.13
2019-04-10T14:28:35.349Z,33.30
2019-04-10T14:33:39.904Z,38.13
2019-04-10T14:38:43.528Z,30.67
2019-04-10T14:43:48.006Z,35.97
2019-04-10T14:53:49.111Z,37.03
2019-04-10T14:58:52.977Z,39.17
2019-04-10T15:03:56.994Z,36.30
2019-04-10T15:09:00.423Z,43.63
2019-04-10T15:14:03.815Z,34.87
2019-04-10T15:19:07.978Z,40.73
2019-04-10T15:24:11.554Z,29.03
2019-04-10T15:29:15.043Z,31.00
2019-04-10T15:34:18.427Z,45.63
2019-04-10T15:39:31.484Z,40.17
2019-04-10T15:44:26.923Z,32.87
2019-04-10T15:49:30.988Z,35.40
2019-04-10T15:54:34.486Z,33.43
2019-04-10T15:59:38.566Z,35.77
2019-04-10T16:04:42.333Z,33.83
2019-04-10T16:09:51.687Z,36.97
2019-04-10T16:14:52.722Z,36.83
2019-04-10T16:19:57.871Z,42.00
2019-04-10T16:25:03.170Z,36.60
2019-04-10T16:30:08.731Z,35.33
2019-04-10T16:35:13.575Z,38.20
2019-04-10T16:40:18.450Z,38.80
2019-04-10T16:45:22.346Z,38.37
2019-04-10T16:50:25.886Z,37.57
2019-04-10T16:55:29.311Z,44.10
2019-04-10T17:00:32.703Z,40.77
2019-04-10T17:05:36.169Z,32.43
2019-04-10T17:10:40.674Z,40.47
2019-04-10T17:15:44.115Z,41.07
2019-04-10T17:20:48.578Z,31.10
2019-04-10T17:25:52.676Z,34.73
2019-04-10T17:30:56.163Z,31.37
2019-04-10T17:36:00.156Z,39.47
2019-04-10T17:41:04.502Z,34.87
2019-04-10T17:46:09.218Z,27.93
2019-04-10T17:51:14.008Z,42.90
2019-04-10T17:56:17.483Z,30.40
2019-04-10T18:01:23.003Z,37.43
2019-04-10T18:06:27.641Z,40.13
2019-04-10T18:11:32.074Z,33.10
2019-04-10T18:16:36.180Z,34.50
2019-04-10T18:21:39.647Z,35.90
2019-04-10T18:26:43.728Z,35.80
2019-04-10T18:31:47.331Z,41.80
2019-04-10T18:36:51.096Z,40.37
2019-04-10T18:41:54.578Z,33.47
2019-04-10T18:46:57.970Z,31.70
2019-04-10T18:52:01.369Z,34.23
2019-04-10T18:57:05.385Z,28.83
2019-04-10T19:02:28.765Z,34.87
2019-04-10T19:07:32.302Z,36.47
2019-04-10T19:12:36.867Z,26.20
2019-04-10T19:17:41.817Z,27.07
2019-04-10T19:22:45.333Z,31.77
2019-04-10T19:27:48.719Z,35.33
2019-04-10T19:32:52.095Z,27.60
2019-04-10T19:37:56.668Z,35.87
2019-04-10T19:43:00.162Z,32.60
2019-04-10T19:48:03.837Z,27.33
2019-04-10T19:53:07.227Z,25.03
2019-04-10T19:58:10.942Z,23.90
2019-04-10T20:03:15.304Z,27.57
2019-04-10T20:08:19.654Z,23.23
2019-04-10T20:13:23.045Z,29.03
2019-04-10T20:18:26.593Z,29.57
2019-04-10T20:23:30.013Z,27.17
2019-04-10T20:28:33.375Z,17.40
2019-04-10T20:33:36.778Z,22.63
2019-04-10T20:38:40.850Z,16.93
2019-04-10T20:43:44.835Z,16.60
2019-04-10T20:48:48.807Z,10.73
2019-04-10T20:53:52.614Z,16.83
2019-04-10T20:58:55.988Z,12.63
2019-04-10T21:03:59.375Z,12.73
2019-04-10T21:09:05.258Z,14.13
2019-04-10T21:14:09.238Z,8.40
2019-04-10T21:19:12.911Z,14.93
2019-04-10T21:24:16.774Z,12.00
2019-04-10T21:29:25.478Z,12.63
2019-04-10T21:34:30.592Z,14.87
2019-04-10T21:39:34.002Z,11.20
2019-04-10T21:44:37.442Z,11.33
2019-04-10T21:49:40.983Z,9.90
2019-04-10T21:54:49.480Z,16.27
2019-04-10T21:59:49.694Z,13.43
2019-04-10T22:04:53.111Z,7.50
2019-04-10T22:10:07.734Z,11.47
2019-04-10T22:15:16.929Z,11.50
2019-04-10T22:20:20.487Z,12.07
2019-04-10T22:25:23.959Z,11.97
2019-04-10T22:30:27.339Z,11.50
2019-04-10T22:35:31.397Z,6.17
2019-04-10T22:40:34.862Z,11.03
2019-04-10T22:45:38.245Z,9.37
2019-04-10T22:50:41.625Z,8.50
2019-04-10T22:55:44.997Z,8.33
2019-04-10T23:00:48.542Z,5.00
2019-04-10T23:05:53.002Z,17.43
2019-04-10T23:10:57.323Z,5.40
2019-04-10T23:16:01.904Z,9.23
2019-04-10T23:21:06.107Z,9.73
2019-04-10T23:26:09.557Z,12.50
2019-04-10T23:31:13.203Z,13.83
2019-04-10T23:36:16.591Z,14.07
2019-04-10T23:41:21.139Z,10.67
2019-04-10T23:46:24.630Z,7.00
2019-04-10T23:51:28.004Z,4.80
2019-04-10T23:56:31.568Z,11.90
